Hare Bay, Canada
Current Conditions -  °F | °C
As of 7:00 PM on Monday 22 Dec 2014 (Local Time) from CYQX Reporting Station
Overcast Overcast  
Wind Chill: 25°   Ceiling: 1300
Heat Index: 25°   Visibility: 15mi
Dew Point: 19°   Wind: 2mph
Humidity: 80%   Direction: NA
Pressure: 30.44"   Gusts: NA
Location:  48.85°N, 54.01°W
Report Text: CYQX 222200Z VRB02KT 15SM OVC013 M04/M07 A3044 RMK SC8 SLP317
Loading
Personal Weather Stations






























Interactive Weather Map New forecast layout! Learn more

10-Day Weather Forecast

Advertisements
Track Severe Weather on mobile